Terminal Aerodrome Forecast
Issued by NWS

Current Version | Previous Version | Graphics & Text | Print | Product List | Glossary On
Versions: 1 2 3 4 5 6 7 8 9 10 11 12 13 14 15 16 17 18 19 20 21 22 23 24 25 26 27 28 29
000
FTUS41 KRLX 171938 AAA
TAFCKB
TAF AMD
KCKB 171938Z 1720/1818 21011G18KT P6SM BKN025 OVC040
     FM172200 23010G16KT 4SM -SHRA OVC015
     FM180200 27008G16KT P6SM BKN015=

USA.gov is the U.S. government's official web portal to all federal, state and local government web resources and services.